createdAt,value
2017-07-01T00:00:07.366Z,55.4
2017-07-01T00:01:17.091Z,55.2
2017-07-01T00:02:27.449Z,55.01
2017-07-01T00:03:37.803Z,54.91
2017-07-01T00:04:47.833Z,55.3
2017-07-01T00:05:57.917Z,55.27
2017-07-01T00:07:08.266Z,55.27
2017-07-01T00:08:18.001Z,55.18
2017-07-01T00:09:28.346Z,55.27
2017-07-01T00:10:38.688Z,55.46
2017-07-01T00:11:49.088Z,55.27
2017-07-01T00:12:59.125Z,55.36
2017-07-01T00:14:08.866Z,55.24
2017-07-01T00:15:19.215Z,55.27
2017-07-01T00:16:29.561Z,55.24
2017-07-01T00:17:39.958Z,55.54
2017-07-01T00:18:49.669Z,55.54
2017-07-01T00:20:00.022Z,55.44
2017-07-01T00:21:10.373Z,55.73
2017-07-01T00:22:20.135Z,55.22
2017-07-01T00:23:30.500Z,55.22
2017-07-01T00:24:40.839Z,55.41
2017-07-01T00:25:51.189Z,55.22
2017-07-01T00:27:01.542Z,55.02
2017-07-01T00:28:11.578Z,55.22
2017-07-01T00:29:21.685Z,55.31
2017-07-01T00:30:32.032Z,54.83
2017-07-01T00:31:41.753Z,54.74
2017-07-01T00:32:52.104Z,54.93
2017-07-01T00:34:02.461Z,54.83
2017-07-01T00:35:12.854Z,54.86
2017-07-01T00:36:23.219Z,55.12
2017-07-01T00:37:33.272Z,55.12
2017-07-01T00:38:43.621Z,54.93
2017-07-01T00:39:53.344Z,54.93
2017-07-01T00:41:03.693Z,54.83
2017-07-01T00:42:14.068Z,54.83
2017-07-01T00:43:24.107Z,54.83
2017-07-01T00:44:34.453Z,55.31
2017-07-01T00:45:44.809Z,55.12
2017-07-01T00:46:55.207Z,55.12
2017-07-01T00:48:05.564Z,55.02
2017-07-01T00:49:15.919Z,55.12
2017-07-01T00:50:25.954Z,55.02
2017-07-01T00:51:35.998Z,55.31
2017-07-01T00:52:46.405Z,55.12
2017-07-01T00:53:56.434Z,55.02
2017-07-01T00:55:06.785Z,55.02
2017-07-01T00:56:16.825Z,55.12
2017-07-01T00:57:27.165Z,55.12
2017-07-01T00:58:37.565Z,55.02
2017-07-01T00:59:47.603Z,55.12
2017-07-01T01:00:57.963Z,55.12
2017-07-01T01:02:07.996Z,55.12
2017-07-01T01:03:18.406Z,55.12
2017-07-01T01:04:28.463Z,55.12
2017-07-01T01:05:38.494Z,55.02
2017-07-01T01:06:48.544Z,54.83
2017-07-01T01:07:58.897Z,55.12
2017-07-01T01:09:08.946Z,55.02
2017-07-01T01:10:19.308Z,54.93
2017-07-01T01:11:29.676Z,55.02
2017-07-01T01:12:39.707Z,54.83
2017-07-01T01:13:49.746Z,54.83
2017-07-01T01:15:00.099Z,55.02
2017-07-01T01:16:10.216Z,54.83
2017-07-01T01:17:20.261Z,55.02
2017-07-01T01:18:30.615Z,54.83
2017-07-01T01:19:40.643Z,54.83
2017-07-01T01:20:50.997Z,54.74
2017-07-01T01:22:01.079Z,54.54
2017-07-01T01:23:11.428Z,55.02
2017-07-01T01:24:21.759Z,55.22
2017-07-01T01:25:32.110Z,55.31
2017-07-01T01:26:42.450Z,55.12
2017-07-01T01:27:52.838Z,55.12
2017-07-01T01:29:02.877Z,55.12
2017-07-01T01:30:12.288Z,54.83
2017-07-01T01:31:22.625Z,55.12
2017-07-01T01:32:32.961Z,54.83
2017-07-01T01:33:43.002Z,54.74
2017-07-01T01:34:53.360Z,55.12
2017-07-01T01:36:03.704Z,55.12
2017-07-01T01:37:13.732Z,55.31
2017-07-01T01:38:23.824Z,55.02
2017-07-01T01:39:34.211Z,54.93
2017-07-01T01:40:44.563Z,55.02
2017-07-01T01:41:54.917Z,54.83
2017-07-01T01:43:05.266Z,54.93
2017-07-01T01:44:15.620Z,54.93
2017-07-01T01:45:26.015Z,55.12
2017-07-01T01:46:36.353Z,55.12
2017-07-01T01:47:46.703Z,55.12
2017-07-01T01:48:56.738Z,55.02
2017-07-01T01:50:07.098Z,55.12
2017-07-01T01:51:17.503Z,55.12
2017-07-01T01:52:27.846Z,55.12
2017-07-01T01:53:38.201Z,55.12
2017-07-01T01:54:48.556Z,55.15
2017-07-01T01:55:58.944Z,55.15
2017-07-01T01:57:08.719Z,55.12
2017-07-01T01:58:19.074Z,55.12
2017-07-01T01:59:29.411Z,55.12
2017-07-01T02:00:39.751Z,54.83
2017-07-01T02:01:50.100Z,54.93
2017-07-01T02:03:00.448Z,55.02
2017-07-01T02:04:10.794Z,55.12
2017-07-01T02:05:21.164Z,55.22
2017-07-01T02:06:31.217Z,55.12
2017-07-01T02:07:41.566Z,55.15
2017-07-01T02:08:51.325Z,54.57
2017-07-01T02:10:01.363Z,55.15
2017-07-01T02:11:11.702Z,55.12
2017-07-01T02:12:22.057Z,55.02
2017-07-01T02:13:32.097Z,55.02
2017-07-01T02:14:42.497Z,54.86
2017-07-01T02:15:52.839Z,54.83
2017-07-01T02:17:03.185Z,54.83
2017-07-01T02:18:13.235Z,55.02
2017-07-01T02:19:23.270Z,54.83
2017-07-01T02:20:33.918Z,54.74
2017-07-01T02:21:44.280Z,54.93
2017-07-01T02:22:54.321Z,55.12
2017-07-01T02:24:04.673Z,55.31
2017-07-01T02:25:15.026Z,55.02
2017-07-01T02:26:25.111Z,55.12
2017-07-01T02:27:35.144Z,55.12
2017-07-01T02:28:45.495Z,55.12
2017-07-01T02:29:55.547Z,55.31
2017-07-01T02:31:05.259Z,55.12
2017-07-01T02:32:15.368Z,55.02
2017-07-01T02:33:25.717Z,54.83
2017-07-01T02:34:36.067Z,55.31
2017-07-01T02:35:45.808Z,55.22
2017-07-01T02:36:56.157Z,54.74
2017-07-01T02:38:06.243Z,54.44
2017-07-01T02:39:16.591Z,54.83
2017-07-01T02:40:26.620Z,54.74
2017-07-01T02:41:36.961Z,54.93
2017-07-01T02:42:47.330Z,54.83
2017-07-01T02:43:57.733Z,54.83
2017-07-01T02:45:07.754Z,54.83
2017-07-01T02:46:17.484Z,54.83
2017-07-01T02:47:27.205Z,54.93
2017-07-01T02:48:37.555Z,55.02
2017-07-01T02:49:47.908Z,54.93
2017-07-01T02:50:57.949Z,55.02
2017-07-01T02:52:08.302Z,54.83
2017-07-01T02:53:18.328Z,54.83
2017-07-01T02:54:28.666Z,55.02
2017-07-01T02:55:38.697Z,54.83
2017-07-01T02:56:49.027Z,54.93
2017-07-01T02:57:59.367Z,54.86
2017-07-01T02:59:08.807Z,54.93
2017-07-01T03:00:19.407Z,55.02
2017-07-01T03:01:29.505Z,54.86
2017-07-01T03:33:17.458Z,52.1
2017-07-01T03:34:27.785Z,52.58
2017-07-01T03:35:37.831Z,53.64
2017-07-01T03:36:48.158Z,54.09
2017-07-01T03:37:58.497Z,54.22
2017-07-01T03:39:08.259Z,54.79
2017-07-01T03:40:18.294Z,54.89
2017-07-01T03:41:28.660Z,55.18
2017-07-01T03:42:38.372Z,55.46
2017-07-01T03:43:48.407Z,55.4
2017-07-01T03:44:58.172Z,55.49
2017-07-01T03:46:08.508Z,55.3
2017-07-01T03:47:18.870Z,55.52
2017-07-01T03:48:28.889Z,55.52
2017-07-01T03:49:39.242Z,55.43
2017-07-01T03:50:49.620Z,55.16
2017-07-01T03:51:59.649Z,55.16
2017-07-01T03:53:09.993Z,55.26
2017-07-01T03:54:20.346Z,55.19
2017-07-01T03:55:30.692Z,55.19
2017-07-01T03:56:41.085Z,54.9
2017-07-01T03:57:51.436Z,54.74
2017-07-01T03:59:01.779Z,54.74
2017-07-01T04:00:11.810Z,54.74
2017-07-01T04:01:22.158Z,55.12
2017-07-01T04:02:32.510Z,55.22
2017-07-01T04:03:42.846Z,54.93
2017-07-01T04:04:53.204Z,54.44
2017-07-01T04:06:03.549Z,54.86
2017-07-01T04:07:13.958Z,54.96
2017-07-01T04:08:24.004Z,54.96
2017-07-01T04:09:34.352Z,55.08
2017-07-01T04:10:44.710Z,55.15
2017-07-01T04:11:55.066Z,55.18
2017-07-01T04:13:05.107Z,54.88
2017-07-01T04:14:15.504Z,54.69
2017-07-01T04:15:25.861Z,54.6
2017-07-01T04:16:35.898Z,54.69
2017-07-01T04:17:46.226Z,54.62
2017-07-01T04:18:56.595Z,54.53
2017-07-01T04:20:07.010Z,54.62
2017-07-01T04:21:17.341Z,54.53
2017-07-01T04:22:27.689Z,54.33
2017-07-01T04:23:38.024Z,54.36
2017-07-01T04:24:48.376Z,54.27
2017-07-01T04:25:58.476Z,54.36
2017-07-01T04:27:08.500Z,54.17
2017-07-01T04:28:18.553Z,54.17
2017-07-01T04:29:28.573Z,54.36
2017-07-01T04:30:38.600Z,54.46
2017-07-01T04:31:48.325Z,54.39
2017-07-01T04:32:58.665Z,54.17
2017-07-01T04:34:08.696Z,54.46
2017-07-01T04:35:19.058Z,54.19
2017-07-01T04:36:29.404Z,54.19
2017-07-01T04:37:39.762Z,54.39
2017-07-01T04:38:50.112Z,54.29
2017-07-01T04:40:00.158Z,53.91
2017-07-01T04:41:10.506Z,53.93
2017-07-01T04:42:20.538Z,54.13
2017-07-01T04:43:30.935Z,53.64
2017-07-01T04:44:40.960Z,53.38
2017-07-01T04:45:50.987Z,53.28
2017-07-01T04:47:01.019Z,52.92
2017-07-01T04:48:11.360Z,52.44
2017-07-01T04:49:21.753Z,52.87
2017-07-01T04:50:31.785Z,52.49
2017-07-01T04:51:41.501Z,52.58
2017-07-01T04:52:51.848Z,53.17
2017-07-01T04:54:01.881Z,53.33
2017-07-01T04:55:12.277Z,53.81
2017-07-01T04:56:22.632Z,54.01
2017-07-01T04:57:33.006Z,54.11
2017-07-01T04:58:43.404Z,54.08
2017-07-01T04:59:53.765Z,54.37
2017-07-01T05:01:03.867Z,54.47
2017-07-01T05:02:13.893Z,54.47
2017-07-01T05:03:24.254Z,54.47
2017-07-01T05:04:34.622Z,54.66
2017-07-01T05:05:44.967Z,54.66
2017-07-01T05:06:55.430Z,54.63
2017-07-01T05:08:05.793Z,54.53
2017-07-01T05:09:16.141Z,54.53
2017-07-01T05:10:26.166Z,54.73
2017-07-01T05:11:36.228Z,54.53
2017-07-01T05:12:46.348Z,54.63
2017-07-01T05:13:56.688Z,54.61
2017-07-01T05:15:06.726Z,54.51
2017-07-01T05:16:16.748Z,54.61
2017-07-01T05:17:26.789Z,54.8
2017-07-01T05:18:36.839Z,54.13
2017-07-01T05:19:47.182Z,54.51
2017-07-01T05:20:57.225Z,54.8
2017-07-01T05:22:07.263Z,55.26
2017-07-01T05:23:17.295Z,55.16
2017-07-01T05:24:27.385Z,55.26
2017-07-01T05:25:37.729Z,55.26
2017-07-01T05:26:48.074Z,55.26
2017-07-01T05:27:58.110Z,55.04
2017-07-01T05:29:08.459Z,55.04
2017-07-01T05:30:19.156Z,55.42
2017-07-01T05:31:29.196Z,55.33
2017-07-01T05:32:39.233Z,55.23
2017-07-01T05:33:49.587Z,54.82
2017-07-01T05:34:59.936Z,54.72
2017-07-01T05:36:10.289Z,54.82
2017-07-01T05:37:20.652Z,54.82
2017-07-01T05:38:30.687Z,54.82
2017-07-01T05:39:41.034Z,55.1
2017-07-01T05:40:51.383Z,55.3
2017-07-01T05:42:01.785Z,55.1
2017-07-01T05:43:12.145Z,55.1
2017-07-01T05:44:22.509Z,55.2
2017-07-01T05:45:32.878Z,54.82
2017-07-01T05:46:42.973Z,55.1
2017-07-01T05:47:53.081Z,54.53
2017-07-01T05:49:03.423Z,55.2
2017-07-01T05:50:13.471Z,55.08
2017-07-01T05:51:23.822Z,55.18
2017-07-01T05:52:33.924Z,54.69
2017-07-01T05:53:44.326Z,55.18
2017-07-01T05:54:54.359Z,55.18
2017-07-01T05:56:04.712Z,55.27
2017-07-01T05:57:14.777Z,55.18
2017-07-01T05:58:25.117Z,55.08
2017-07-01T05:59:35.135Z,55.36
2017-07-01T06:00:45.491Z,55.34
2017-07-01T06:01:55.844Z,55.05
2017-07-01T06:03:05.568Z,55.15
2017-07-01T06:04:15.641Z,54.86
2017-07-01T06:05:25.980Z,55.34
2017-07-01T06:06:36.015Z,55.34
2017-07-01T06:07:46.097Z,54.76
2017-07-01T06:08:56.461Z,54.93
2017-07-01T06:10:06.236Z,55.02
2017-07-01T06:11:16.265Z,55.12
2017-07-01T06:12:26.606Z,55.22
2017-07-01T06:13:36.955Z,55.22
2017-07-01T06:14:46.688Z,55.22
2017-07-01T06:15:56.119Z,55.22
2017-07-01T06:17:06.151Z,55.22
2017-07-01T06:18:16.518Z,55.22
2017-07-01T06:19:26.290Z,55.02
2017-07-01T06:20:36.641Z,55.19
2017-07-01T06:21:46.701Z,55.02
2017-07-01T06:22:56.434Z,55
2017-07-01T06:24:06.468Z,55.29
2017-07-01T06:25:16.866Z,55
2017-07-01T06:26:27.220Z,54.61
2017-07-01T06:27:36.936Z,54.8
2017-07-01T06:28:47.272Z,55.09
2017-07-01T06:29:57.299Z,55.29
2017-07-01T06:31:07.385Z,55.29
2017-07-01T06:32:17.418Z,54.9
2017-07-01T06:33:27.457Z,55.09
2017-07-01T06:34:37.507Z,54.13
2017-07-01T06:35:47.547Z,54.35
2017-07-01T06:36:58.228Z,53.96
2017-07-01T06:38:08.277Z,53.87
2017-07-01T06:39:18.654Z,54.16
2017-07-01T06:40:28.719Z,54.25
2017-07-01T06:41:38.784Z,53.87
2017-07-01T06:42:49.206Z,54.06
2017-07-01T06:43:59.582Z,54.35
2017-07-01T06:45:09.975Z,54.25
2017-07-01T06:46:20.034Z,54.16
2017-07-01T06:47:30.060Z,54.06
2017-07-01T06:48:40.417Z,54.06
2017-07-01T06:49:50.469Z,53.96
2017-07-01T06:51:00.843Z,54.06
2017-07-01T06:52:10.897Z,53.96
2017-07-01T06:53:21.262Z,54.16
2017-07-01T06:54:31.703Z,53.99
2017-07-01T06:55:42.059Z,54.25
2017-07-01T06:56:52.436Z,54.09
2017-07-01T06:58:02.794Z,54.18
2017-07-01T06:59:12.846Z,54.09
2017-07-01T07:00:22.933Z,53.89
2017-07-01T07:01:33.299Z,53.89
2017-07-01T07:02:43.717Z,53.8
2017-07-01T07:03:53.769Z,53.92
2017-07-01T07:05:03.803Z,54.21
2017-07-01T07:06:14.206Z,53.63
2017-07-01T07:07:24.568Z,53.83
2017-07-01T07:08:34.594Z,53.83
2017-07-01T07:09:44.945Z,53.83
2017-07-01T07:10:54.993Z,53.85
2017-07-01T07:12:04.764Z,53.75
2017-07-01T07:13:14.812Z,53.75
2017-07-01T07:14:25.167Z,53.85
2017-07-01T07:15:35.223Z,53.56
2017-07-01T07:16:44.937Z,53.47
2017-07-01T07:17:55.287Z,53.17
2017-07-01T07:19:05.676Z,53.3
2017-07-01T07:20:16.034Z,53.11
2017-07-01T07:21:26.394Z,53.61
2017-07-01T07:22:36.760Z,52.94
2017-07-01T07:23:47.117Z,52.55
2017-07-01T07:24:57.159Z,52.65
2017-07-01T07:26:07.534Z,52.67
2017-07-01T07:27:17.569Z,52.58
2017-07-01T07:28:27.608Z,52.48
2017-07-01T07:29:37.697Z,52.97
2017-07-01T07:30:48.223Z,52.77
2017-07-01T07:31:58.582Z,52.7
2017-07-01T07:33:08.626Z,52.41
2017-07-01T07:34:18.663Z,52.44
2017-07-01T07:35:29.084Z,52.34
2017-07-01T07:36:39.419Z,52.73
2017-07-01T07:37:49.493Z,52.75
2017-07-01T07:38:59.533Z,52.56
2017-07-01T07:40:09.881Z,52.97
2017-07-01T07:41:20.283Z,53.07
2017-07-01T07:42:30.623Z,52.97
2017-07-01T07:43:40.973Z,52.68
2017-07-01T07:44:50.994Z,52.22
2017-07-01T07:46:01.137Z,52.03
2017-07-01T07:47:11.237Z,52.12
2017-07-01T07:48:21.587Z,52.9
2017-07-01T07:49:31.931Z,53.02
2017-07-01T07:50:42.278Z,52.9
2017-07-01T07:51:51.713Z,53
2017-07-01T07:53:02.069Z,52.9
2017-07-01T07:54:12.432Z,52.73
2017-07-01T07:55:22.766Z,52.64
2017-07-01T07:56:32.792Z,52.93
2017-07-01T07:57:42.829Z,53.02
2017-07-01T07:58:53.241Z,53.02
2017-07-01T08:00:03.599Z,53.02
2017-07-01T08:01:13.963Z,53.02
2017-07-01T08:02:24.009Z,52.83
2017-07-01T08:03:34.049Z,52.93
2017-07-01T08:04:44.115Z,52.83
2017-07-01T08:05:54.468Z,53.05
2017-07-01T08:07:04.507Z,52.08
2017-07-01T08:08:14.559Z,52.2
2017-07-01T08:09:24.604Z,52.4
2017-07-01T08:10:35.011Z,52.2
2017-07-01T08:11:45.449Z,52.23
2017-07-01T08:12:55.502Z,52.33
2017-07-01T08:14:05.872Z,52.23
2017-07-01T08:15:15.898Z,52.62
2017-07-01T08:16:26.306Z,52.72
2017-07-01T08:17:36.342Z,52.91
2017-07-01T08:18:46.378Z,52.81
2017-07-01T08:19:56.750Z,52.91
2017-07-01T08:21:07.107Z,52.62
2017-07-01T08:22:17.466Z,52.98
2017-07-01T08:23:27.521Z,52.69
2017-07-01T08:24:37.925Z,52.88
2017-07-01T08:25:47.981Z,52.69
2017-07-01T08:26:58.330Z,52.78
2017-07-01T08:28:08.975Z,52.59
2017-07-01T08:29:19.012Z,52.98
2017-07-01T08:30:29.042Z,52.69
2017-07-01T08:31:39.084Z,52.98
2017-07-01T08:32:49.122Z,52.59
2017-07-01T08:33:59.580Z,52.98
2017-07-01T08:35:09.959Z,53.56
2017-07-01T08:36:20.020Z,53.63
2017-07-01T08:37:30.081Z,53.53
2017-07-01T08:38:40.113Z,53.63
2017-07-01T08:39:49.832Z,53.63
2017-07-01T08:41:00.185Z,53.51
2017-07-01T08:42:10.540Z,53.41
2017-07-01T08:43:20.897Z,53.24
2017-07-01T08:44:31.239Z,52.95
2017-07-01T08:45:41.598Z,52.78
2017-07-01T08:46:51.945Z,52.23
2017-07-01T08:48:02.286Z,52.28
2017-07-01T08:49:12.345Z,51.79
2017-07-01T08:50:22.534Z,51.62
2017-07-01T08:51:32.930Z,51.72
2017-07-01T08:52:42.975Z,51.82
2017-07-01T08:53:53.328Z,52.14
2017-07-01T08:55:03.699Z,52.31
2017-07-01T08:56:13.721Z,52.31
2017-07-01T08:57:24.128Z,53.18
2017-07-01T08:58:34.232Z,53.06
2017-07-01T08:59:44.591Z,52.86
2017-07-01T09:00:54.928Z,53.16
2017-07-01T09:02:04.969Z,52.21
2017-07-01T09:03:15.346Z,52.31
2017-07-01T09:04:25.395Z,52.14
2017-07-01T09:05:35.738Z,52.23
2017-07-01T09:06:45.802Z,52.33
2017-07-01T09:07:55.851Z,52.14
2017-07-01T09:09:06.266Z,53.08
2017-07-01T09:10:16.325Z,52.98
2017-07-01T09:11:26.669Z,52.69
2017-07-01T09:12:36.703Z,52.89
2017-07-01T09:13:46.762Z,52.79
2017-07-01T09:14:56.544Z,52.98
2017-07-01T09:16:06.898Z,52.79
2017-07-01T09:17:16.940Z,52.89
2017-07-01T09:18:26.981Z,53.18
2017-07-01T09:19:37.350Z,52.89
2017-07-01T09:20:47.744Z,53.08
2017-07-01T09:21:58.106Z,53.57
2017-07-01T09:23:08.495Z,53.67
2017-07-01T09:24:18.852Z,53.38
2017-07-01T09:25:28.891Z,53.38
2017-07-01T09:26:39.278Z,54.08
2017-07-01T09:27:49.618Z,53.47
2017-07-01T09:28:59.981Z,53.59
2017-07-01T09:30:10.044Z,53.11
2017-07-01T09:31:20.094Z,53.11
2017-07-01T09:32:30.516Z,53.14
2017-07-01T09:33:40.882Z,53.14
2017-07-01T09:34:51.235Z,53.14
2017-07-01T09:36:01.270Z,53.72
2017-07-01T09:37:11.625Z,53.59
2017-07-01T09:38:22.043Z,54.08
2017-07-01T09:39:32.412Z,54.4
2017-07-01T09:40:42.793Z,54.18
2017-07-01T09:41:52.832Z,53.69
2017-07-01T09:43:02.863Z,53.81
2017-07-01T09:44:13.255Z,53.81
2017-07-01T09:45:23.640Z,53.81
2017-07-01T09:46:33.686Z,53.81
2017-07-01T09:47:43.723Z,53.91
2017-07-01T09:48:54.093Z,53.65
2017-07-01T09:50:04.508Z,53.16
2017-07-01T09:51:14.870Z,53.16
2017-07-01T09:52:25.236Z,53.06
2017-07-01T09:53:35.288Z,53.65
2017-07-01T09:54:45.654Z,53.45
2017-07-01T09:55:55.693Z,53.67
2017-07-01T09:57:06.075Z,53.48
2017-07-01T09:58:16.180Z,53.58
2017-07-01T09:59:26.543Z,53.48
2017-07-01T10:00:36.274Z,54.06
2017-07-01T10:01:46.420Z,54.16
2017-07-01T10:02:56.791Z,54.06
2017-07-01T10:04:07.161Z,53.48
2017-07-01T10:05:17.522Z,53.21
2017-07-01T10:06:27.269Z,53.21
2017-07-01T10:07:37.323Z,53.21
2017-07-01T10:08:47.671Z,53.31
2017-07-01T10:09:58.025Z,53.02
2017-07-01T10:11:08.072Z,53.21
2017-07-01T10:12:18.420Z,53.34
2017-07-01T10:13:28.458Z,53.14
2017-07-01T10:14:38.814Z,53.34
2017-07-01T10:15:49.161Z,53.34
2017-07-01T10:16:59.205Z,53.73
2017-07-01T10:18:09.578Z,53.92
2017-07-01T10:19:19.938Z,54.11
2017-07-01T10:20:30.290Z,54.19
2017-07-01T10:21:40.635Z,54.11
2017-07-01T10:22:50.681Z,53.44
2017-07-01T10:24:01.044Z,53.24
2017-07-01T10:25:11.450Z,53.46
2017-07-01T10:26:21.801Z,53.36
2017-07-01T10:27:32.168Z,52.87
2017-07-01T10:28:42.530Z,53.07
2017-07-01T10:29:52.588Z,52.7
2017-07-01T10:31:02.998Z,53.29
2017-07-01T10:32:13.347Z,53.09
2017-07-01T10:33:23.691Z,53.19
2017-07-01T10:34:34.061Z,53.09
2017-07-01T10:35:44.514Z,52.8
2017-07-01T10:36:54.912Z,53.29
2017-07-01T10:38:05.256Z,52.9
2017-07-01T10:39:15.602Z,53.29
2017-07-01T10:40:25.637Z,53.42
2017-07-01T10:41:36.008Z,53.52
2017-07-01T10:42:46.418Z,53.03
2017-07-01T10:43:56.777Z,52.54
2017-07-01T10:45:06.828Z,53.34
2017-07-01T10:46:16.898Z,53.54
2017-07-01T10:47:27.259Z,54.07
2017-07-01T10:48:37.295Z,53.58
2017-07-01T10:49:47.645Z,53.97
2017-07-01T10:50:57.690Z,53.95
2017-07-01T10:52:07.765Z,53.49
2017-07-01T10:53:17.813Z,53.22
2017-07-01T10:54:28.231Z,53.22
2017-07-01T10:55:38.321Z,53.22
2017-07-01T10:56:48.690Z,53.03
2017-07-01T10:57:58.724Z,52.47
2017-07-01T10:59:09.077Z,52.76
2017-07-01T11:00:19.172Z,52.59
2017-07-01T11:01:29.527Z,52.59
2017-07-01T11:02:39.886Z,52.39
2017-07-01T11:03:49.947Z,52.69
2017-07-01T11:05:00.615Z,52.49
2017-07-01T11:06:11.039Z,53.47
2017-07-01T11:07:21.101Z,53.34
2017-07-01T11:08:31.480Z,52.95
2017-07-01T11:09:41.836Z,53.81
2017-07-01T11:10:52.187Z,52.73
2017-07-01T11:12:02.277Z,53.22
2017-07-01T11:13:12.649Z,53.05
2017-07-01T11:14:23.028Z,53.25
2017-07-01T11:15:33.066Z,53.52
2017-07-01T11:16:43.418Z,53.25
2017-07-01T11:17:53.765Z,53.22
2017-07-01T11:19:03.803Z,52.95
2017-07-01T11:20:14.177Z,53.22
2017-07-01T11:21:24.255Z,53.91
2017-07-01T11:22:33.987Z,53.29
2017-07-01T11:23:44.362Z,52.83
2017-07-01T11:24:54.720Z,53.32
2017-07-01T11:26:05.092Z,53.25
2017-07-01T11:27:15.456Z,53.44
2017-07-01T11:28:25.831Z,53.64
2017-07-01T11:29:36.014Z,53.44
2017-07-01T11:30:46.390Z,52.49
2017-07-01T11:31:56.919Z,52.49
2017-07-01T11:33:06.968Z,52.49
2017-07-01T11:34:17.338Z,52.59
2017-07-01T11:35:27.693Z,53.27
2017-07-01T11:36:38.104Z,53.27
2017-07-01T11:37:48.147Z,53.27
2017-07-01T11:38:58.509Z,53.27
2017-07-01T11:40:08.863Z,53.37
2017-07-01T11:41:19.219Z,53.27
2017-07-01T11:42:29.588Z,52.78
2017-07-01T11:43:39.641Z,53.47
2017-07-01T11:44:49.705Z,53.27
2017-07-01T11:46:00.069Z,53.49
2017-07-01T11:47:10.425Z,53.27
2017-07-01T11:48:20.778Z,52.88
2017-07-01T11:49:30.908Z,53.27
2017-07-01T11:50:41.269Z,53.17
2017-07-01T11:51:51.309Z,52.98
2017-07-01T11:53:01.661Z,52.88
2017-07-01T11:54:12.039Z,52.86
2017-07-01T11:55:22.397Z,52.95
2017-07-01T11:56:32.755Z,53.17
2017-07-01T11:57:42.795Z,53.15
2017-07-01T11:58:53.144Z,53.05
2017-07-01T12:00:03.503Z,53.05
2017-07-01T12:01:13.636Z,53.15
2017-07-01T12:02:23.682Z,53.17
2017-07-01T12:03:34.059Z,53.25
2017-07-01T12:04:44.416Z,53.34
2017-07-01T12:05:54.767Z,52.95
2017-07-01T12:07:04.513Z,53.34
2017-07-01T12:08:14.863Z,52.95
2017-07-01T12:09:24.912Z,52.95
2017-07-01T12:10:35.261Z,52.95
2017-07-01T12:11:45.621Z,53.15
2017-07-01T12:12:56.295Z,53.15
2017-07-01T12:14:06.641Z,54.22
2017-07-01T12:15:16.988Z,53.22
2017-07-01T12:16:28.219Z,52.86
2017-07-01T12:17:40.347Z,53.34
2017-07-01T12:18:50.713Z,53.34
2017-07-01T12:20:01.221Z,53.47
2017-07-01T12:21:11.590Z,53.44
2017-07-01T12:22:21.948Z,53.34
2017-07-01T12:23:32.417Z,52.95
2017-07-01T12:24:42.540Z,53.17
2017-07-01T12:25:52.582Z,52.59
2017-07-01T12:27:02.614Z,52.42
2017-07-01T12:28:12.657Z,52.64
2017-07-01T12:29:22.122Z,53.59
2017-07-01T12:30:32.522Z,53.74
2017-07-01T12:31:42.571Z,54.3
2017-07-01T12:32:52.649Z,54.2
2017-07-01T12:34:03.045Z,53.61
2017-07-01T12:35:13.412Z,53.44
2017-07-01T12:36:23.173Z,53.05
2017-07-01T12:37:33.534Z,52.98
2017-07-01T12:38:43.907Z,52.03
2017-07-01T12:39:53.949Z,52.12
2017-07-01T12:41:04.313Z,51.66
2017-07-01T12:42:14.422Z,52.08
2017-07-01T12:43:24.476Z,51.49
2017-07-01T12:44:34.524Z,50.85
2017-07-01T12:45:44.898Z,50.81
2017-07-01T12:46:55.261Z,50.68
2017-07-01T12:48:05.635Z,50.24
2017-07-01T12:49:15.689Z,49.99
2017-07-01T12:50:25.749Z,50.32
2017-07-01T12:51:36.121Z,50.71
2017-07-01T12:52:46.527Z,51.17
2017-07-01T12:53:56.925Z,51.15
2017-07-01T12:55:07.302Z,51.42
2017-07-01T12:56:17.654Z,50.63
2017-07-01T12:57:28.023Z,51.05
2017-07-01T12:58:38.381Z,50.85
2017-07-01T12:59:48.141Z,50.76
2017-07-01T13:00:58.506Z,51.15
2017-07-01T13:02:08.263Z,51.25
2017-07-01T13:03:18.658Z,51.52
2017-07-01T13:04:28.770Z,52.18
2017-07-01T13:05:38.820Z,52.15
2017-07-01T13:06:49.177Z,52.81
2017-07-01T13:07:59.523Z,52.69
2017-07-01T13:09:09.562Z,52.47
2017-07-01T13:10:19.599Z,52.67
2017-07-01T13:11:29.966Z,53.52
2017-07-01T13:12:40.359Z,53.33
2017-07-01T13:13:50.740Z,53.2
2017-07-01T13:15:01.092Z,53.27
2017-07-01T13:16:11.440Z,52.88
2017-07-01T13:17:21.818Z,53.27
2017-07-01T13:18:32.212Z,52.88
2017-07-01T13:19:42.572Z,52.95
2017-07-01T13:20:52.621Z,52.86
2017-07-01T13:22:03.134Z,53.32
2017-07-01T13:23:13.507Z,53.32
2017-07-01T13:24:23.251Z,53.13
2017-07-01T13:25:33.302Z,52.93
2017-07-01T13:26:43.675Z,53.32
2017-07-01T13:27:54.035Z,53.32
2017-07-01T13:29:04.400Z,53.42
2017-07-01T13:30:14.789Z,53.03
2017-07-01T13:31:24.830Z,53.22
2017-07-01T13:32:35.193Z,53.22
2017-07-01T13:33:45.600Z,52.93
2017-07-01T13:34:55.982Z,53.22
2017-07-01T13:36:06.353Z,53.13
2017-07-01T13:37:16.399Z,53.29
2017-07-01T13:38:26.754Z,53.22
2017-07-01T13:39:36.834Z,53.22
2017-07-01T13:40:46.607Z,53.32
2017-07-01T13:41:56.948Z,53.22
2017-07-01T13:43:07.301Z,53.22
2017-07-01T13:44:17.700Z,52.93
2017-07-01T13:45:28.104Z,53.13
2017-07-01T13:46:38.470Z,53.22
2017-07-01T13:47:48.833Z,53.22
2017-07-01T13:48:59.188Z,53.19
2017-07-01T13:50:09.285Z,53.19
2017-07-01T13:51:19.717Z,52.93
2017-07-01T13:52:30.091Z,52.8
2017-07-01T13:53:40.162Z,52.8
2017-07-01T13:54:50.224Z,53.09
2017-07-01T13:56:00.258Z,52.8
2017-07-01T13:57:10.365Z,52.7
2017-07-01T13:58:20.717Z,53.13
2017-07-01T13:59:30.775Z,53.03
2017-07-01T14:00:41.141Z,53.22
2017-07-01T14:01:51.187Z,53.22
2017-07-01T14:03:01.246Z,53.03
2017-07-01T14:04:11.311Z,52.54
2017-07-01T14:05:21.711Z,52.73
2017-07-01T14:06:31.762Z,52.73
2017-07-01T14:07:42.161Z,52.73
2017-07-01T14:08:52.287Z,53.03
2017-07-01T14:10:02.657Z,53.22
2017-07-01T14:11:13.037Z,52.83
2017-07-01T14:12:22.773Z,52.93
2017-07-01T14:13:32.813Z,53.22
2017-07-01T14:14:43.171Z,53.52
2017-07-01T14:15:53.537Z,53.09
2017-07-01T14:17:03.895Z,53.19
2017-07-01T14:18:14.248Z,53.39
2017-07-01T14:19:24.628Z,53.19
2017-07-01T14:20:35.003Z,53.17
2017-07-01T14:21:45.065Z,53.09
2017-07-01T14:22:55.137Z,53.17
2017-07-01T14:24:05.503Z,53.36
2017-07-01T14:25:15.547Z,53.27
2017-07-01T14:26:25.306Z,53.07
2017-07-01T14:27:35.724Z,53.07
2017-07-01T14:28:46.081Z,53.07
2017-07-01T14:29:56.457Z,52.87
2017-07-01T14:31:06.814Z,53.27
2017-07-01T14:32:16.875Z,53.07
2017-07-01T14:33:26.989Z,53.07
2017-07-01T14:34:37.031Z,53.07
2017-07-01T14:35:47.399Z,53.07
2017-07-01T14:36:57.790Z,52.87
2017-07-01T14:38:08.170Z,52.87
2017-07-01T14:39:18.832Z,53.07
2017-07-01T14:40:28.579Z,53.27
2017-07-01T14:41:38.636Z,53.17
2017-07-01T14:42:49.023Z,53.07
2017-07-01T14:43:59.367Z,53.07
2017-07-01T14:45:09.464Z,53.07
2017-07-01T14:46:19.817Z,52.97
2017-07-01T14:47:30.188Z,53.07
2017-07-01T14:48:40.244Z,52.87
2017-07-01T14:49:50.622Z,53.07
2017-07-01T14:51:01.044Z,53.27
2017-07-01T14:52:11.403Z,53.17
2017-07-01T14:53:21.764Z,53.36
2017-07-01T14:54:31.820Z,53.36
2017-07-01T14:55:42.170Z,53.46
2017-07-01T14:56:52.485Z,53.36
2017-07-01T14:58:02.869Z,53.46
2017-07-01T14:59:12.905Z,53.46
2017-07-01T15:00:22.970Z,53.07
2017-07-01T15:01:33.028Z,53.46
2017-07-01T15:02:43.075Z,53.36
2017-07-01T15:03:53.568Z,53.46
2017-07-01T15:05:03.930Z,53.36
2017-07-01T15:06:14.301Z,53.29
2017-07-01T15:07:24.356Z,53.49
2017-07-01T15:08:34.779Z,53.19
2017-07-01T15:09:44.835Z,53.29
2017-07-01T15:10:55.248Z,53.49
2017-07-01T15:12:05.612Z,53.29
2017-07-01T15:13:15.995Z,53.49
2017-07-01T15:14:26.053Z,53.19
2017-07-01T15:15:36.442Z,53.29
2017-07-01T15:16:46.801Z,53.58
2017-07-01T15:17:56.867Z,53.78
2017-07-01T15:19:07.258Z,53.97
2017-07-01T15:20:17.404Z,54.17
2017-07-01T15:21:27.798Z,54.27
2017-07-01T15:22:38.198Z,54.05
2017-07-01T15:23:48.281Z,54.05
2017-07-01T15:24:58.719Z,54.05
2017-07-01T15:26:09.176Z,54.24
2017-07-01T15:27:19.845Z,54.14
2017-07-01T15:28:30.255Z,54.24
2017-07-01T15:29:40.668Z,54.14
2017-07-01T15:30:51.070Z,54.05
2017-07-01T15:32:01.520Z,53.97
2017-07-01T15:33:11.911Z,54.07
2017-07-01T15:34:21.997Z,54.14
2017-07-01T15:35:32.413Z,54.17
2017-07-01T15:36:42.825Z,54.17